LNI362 WARR-WALL
Flight info
| Callsign | LNI362 |
|---|---|
| Flight time | N/A |
| Altitude | 31000 |
| Route | RAMPY2F/10 RAMPY T13 IKAPI T11 KAYAN |
| Aircraft | B739/M-SDE2E3FGHIRWXY/LB1 |
Departure
| Time | N/A |
|---|---|
| Airport | Juanda International Airport (WARR) |
Arrival
| Time | 2026-04-30 13:12 |
|---|---|
| Airport | Sultan Aji Muhammad Sulaiman Sepinggan International Airport (WALL) |
| Time | Latitude | Longitude | Altitude | Speed | Heading |
|---|---|---|---|---|---|
| 2026-04-30 12:21 | -5.32954 | 113.79512 | 29549 ft | 464 kts | 27° |
| 2026-04-30 12:21 | -5.30090 | 113.80907 | 29778 ft | 463 kts | 27° |
| 2026-04-30 12:21 | -5.27191 | 113.82319 | 29999 ft | 463 kts | 27° |
| 2026-04-30 12:22 | -5.24294 | 113.83730 | 30203 ft | 463 kts | 27° |
| 2026-04-30 12:22 | -5.21403 | 113.85138 | 30423 ft | 462 kts | 27° |
| 2026-04-30 12:22 | -5.18515 | 113.86544 | 30665 ft | 461 kts | 27° |
| 2026-04-30 12:22 | -5.15634 | 113.87947 | 30886 ft | 459 kts | 27° |
| 2026-04-30 12:23 | -5.09871 | 113.90753 | 30920 ft | 461 kts | 27° |
| 2026-04-30 12:23 | -5.04109 | 113.93558 | 30918 ft | 459 kts | 27° |
| 2026-04-30 12:24 | -4.98368 | 113.96352 | 30918 ft | 458 kts | 27° |
| 2026-04-30 12:24 | -4.92789 | 113.99398 | 30926 ft | 456 kts | 34° |
| 2026-04-30 12:25 | -4.87518 | 114.02918 | 30917 ft | 455 kts | 35° |
| 2026-04-30 12:25 | -4.82273 | 114.06483 | 30920 ft | 456 kts | 35° |
| 2026-04-30 12:26 | -4.76999 | 114.10020 | 30917 ft | 456 kts | 34° |
| 2026-04-30 12:26 | -4.71701 | 114.13539 | 30922 ft | 457 kts | 34° |
| 2026-04-30 12:27 | -4.66392 | 114.17055 | 30923 ft | 458 kts | 34° |
| 2026-04-30 12:27 | -4.61107 | 114.20553 | 30918 ft | 459 kts | 34° |
| 2026-04-30 12:28 | -4.55779 | 114.24081 | 30919 ft | 459 kts | 34° |
| 2026-04-30 12:28 | -4.50448 | 114.27611 | 30921 ft | 460 kts | 34° |
| 2026-04-30 12:29 | -4.45108 | 114.31146 | 30920 ft | 460 kts | 34° |
| 2026-04-30 12:29 | -4.39767 | 114.34681 | 30921 ft | 460 kts | 34° |
| 2026-04-30 12:30 | -4.34427 | 114.38215 | 30923 ft | 460 kts | 34° |
| 2026-04-30 12:30 | -4.29092 | 114.41745 | 30923 ft | 460 kts | 34° |
| 2026-04-30 12:31 | -4.23752 | 114.45278 | 30922 ft | 460 kts | 34° |
| 2026-04-30 12:31 | -4.18415 | 114.48808 | 30921 ft | 459 kts | 34° |
| 2026-04-30 12:32 | -4.13084 | 114.52334 | 30920 ft | 459 kts | 34° |
| 2026-04-30 12:32 | -4.07794 | 114.55832 | 30924 ft | 459 kts | 34° |
| 2026-04-30 12:33 | -4.02472 | 114.59350 | 30927 ft | 458 kts | 34° |
| 2026-04-30 12:33 | -3.97151 | 114.62867 | 30920 ft | 458 kts | 34° |
| 2026-04-30 12:34 | -3.91833 | 114.66382 | 30916 ft | 458 kts | 35° |
| 2026-04-30 12:34 | -3.86519 | 114.69894 | 30927 ft | 458 kts | 35° |
| 2026-04-30 12:35 | -3.81209 | 114.73402 | 30926 ft | 457 kts | 35° |
| 2026-04-30 12:35 | -3.75896 | 114.76912 | 30913 ft | 457 kts | 35° |
| 2026-04-30 12:36 | -3.70591 | 114.80416 | 30921 ft | 457 kts | 35° |
| 2026-04-30 12:36 | -3.65281 | 114.83923 | 30921 ft | 457 kts | 34° |
| 2026-04-30 12:37 | -3.59975 | 114.87427 | 30917 ft | 457 kts | 34° |
| 2026-04-30 12:37 | -3.54665 | 114.90933 | 30921 ft | 457 kts | 34° |
| 2026-04-30 12:38 | -3.49359 | 114.94436 | 30908 ft | 457 kts | 34° |
| 2026-04-30 12:38 | -3.44054 | 114.97937 | 30921 ft | 457 kts | 34° |
| 2026-04-30 12:39 | -3.38749 | 115.01438 | 30922 ft | 456 kts | 34° |
| 2026-04-30 12:39 | -3.33447 | 115.04937 | 30916 ft | 457 kts | 34° |
| 2026-04-30 12:40 | -3.28179 | 115.08413 | 30919 ft | 457 kts | 34° |
| 2026-04-30 12:40 | -3.22875 | 115.11912 | 30922 ft | 457 kts | 34° |
| 2026-04-30 12:41 | -3.17564 | 115.15416 | 30922 ft | 457 kts | 34° |
| 2026-04-30 12:41 | -3.12245 | 115.18923 | 30913 ft | 458 kts | 34° |
| 2026-04-30 12:42 | -3.06934 | 115.22426 | 30927 ft | 457 kts | 34° |
| 2026-04-30 12:42 | -3.01620 | 115.25930 | 30922 ft | 457 kts | 34° |
| 2026-04-30 12:43 | -2.96304 | 115.29435 | 30931 ft | 457 kts | 34° |
| 2026-04-30 12:43 | -2.90990 | 115.32938 | 30927 ft | 457 kts | 34° |
| 2026-04-30 12:44 | -2.85683 | 115.36436 | 30934 ft | 457 kts | 34° |
| 2026-04-30 12:44 | -2.80369 | 115.39939 | 30933 ft | 457 kts | 34° |
| 2026-04-30 12:45 | -2.75056 | 115.43440 | 30935 ft | 457 kts | 34° |
| 2026-04-30 12:45 | -2.69741 | 115.46942 | 30937 ft | 457 kts | 34° |
| 2026-04-30 12:46 | -2.64432 | 115.50440 | 30936 ft | 457 kts | 34° |
| 2026-04-30 12:46 | -2.59227 | 115.53868 | 30918 ft | 439 kts | 34° |
| 2026-04-30 12:47 | -2.54176 | 115.57196 | 30935 ft | 437 kts | 34° |
| 2026-04-30 12:47 | -2.51621 | 115.58879 | 30538 ft | 442 kts | 34° |
| 2026-04-30 12:47 | -2.49066 | 115.60562 | 30108 ft | 439 kts | 34° |
| 2026-04-30 12:48 | -2.46525 | 115.62236 | 29559 ft | 435 kts | 34° |
| 2026-04-30 12:48 | -2.44017 | 115.63887 | 29012 ft | 431 kts | 34° |
| 2026-04-30 12:48 | -2.41517 | 115.65534 | 28475 ft | 427 kts | 34° |
| 2026-04-30 12:48 | -2.39048 | 115.67160 | 27961 ft | 423 kts | 34° |
| 2026-04-30 12:49 | -2.36602 | 115.68771 | 27459 ft | 419 kts | 34° |
| 2026-04-30 12:49 | -2.34175 | 115.70370 | 26954 ft | 416 kts | 34° |
| 2026-04-30 12:49 | -2.31772 | 115.71953 | 26464 ft | 413 kts | 34° |
| 2026-04-30 12:49 | -2.29382 | 115.73527 | 25976 ft | 410 kts | 34° |
| 2026-04-30 12:50 | -2.27007 | 115.75091 | 25460 ft | 408 kts | 34° |
| 2026-04-30 12:50 | -2.24644 | 115.76647 | 24976 ft | 406 kts | 34° |
| 2026-04-30 12:50 | -2.22391 | 115.78317 | 24451 ft | 402 kts | 45° |
| 2026-04-30 12:50 | -2.20482 | 115.80346 | 24006 ft | 399 kts | 49° |
| 2026-04-30 12:51 | -2.18650 | 115.82421 | 23504 ft | 398 kts | 50° |
| 2026-04-30 12:51 | -2.16813 | 115.84483 | 22942 ft | 396 kts | 49° |
| 2026-04-30 12:51 | -2.14961 | 115.86513 | 22448 ft | 393 kts | 49° |
| 2026-04-30 12:51 | -2.13112 | 115.88514 | 21963 ft | 390 kts | 48° |
| 2026-04-30 12:52 | -2.11273 | 115.90502 | 21481 ft | 388 kts | 48° |
| 2026-04-30 12:52 | -2.09456 | 115.92471 | 21058 ft | 381 kts | 49° |
| 2026-04-30 12:52 | -2.07685 | 115.94392 | 20531 ft | 372 kts | 49° |
| 2026-04-30 12:52 | -2.05944 | 115.96283 | 19938 ft | 367 kts | 49° |
| 2026-04-30 12:53 | -2.04227 | 115.98148 | 19309 ft | 364 kts | 49° |
| 2026-04-30 12:53 | -2.02521 | 116.00002 | 18688 ft | 361 kts | 49° |
| 2026-04-30 12:53 | -2.00831 | 116.01838 | 18063 ft | 357 kts | 49° |
| 2026-04-30 12:53 | -1.99176 | 116.03636 | 17403 ft | 354 kts | 49° |
| 2026-04-30 12:54 | -1.97521 | 116.05434 | 16760 ft | 350 kts | 49° |
| 2026-04-30 12:54 | -1.95884 | 116.07212 | 16135 ft | 346 kts | 49° |
| 2026-04-30 12:54 | -1.94265 | 116.08970 | 15628 ft | 339 kts | 49° |
| 2026-04-30 12:54 | -1.92685 | 116.10685 | 15185 ft | 331 kts | 49° |
| 2026-04-30 12:55 | -1.91144 | 116.12360 | 14780 ft | 323 kts | 49° |
| 2026-04-30 12:55 | -1.89638 | 116.13994 | 14381 ft | 316 kts | 49° |
| 2026-04-30 12:55 | -1.88159 | 116.15600 | 13994 ft | 312 kts | 49° |
| 2026-04-30 12:55 | -1.86686 | 116.17200 | 13581 ft | 313 kts | 49° |
| 2026-04-30 12:56 | -1.85197 | 116.18817 | 13179 ft | 322 kts | 49° |
| 2026-04-30 12:56 | -1.83657 | 116.20491 | 12755 ft | 330 kts | 49° |
| 2026-04-30 12:56 | -1.82116 | 116.22164 | 12324 ft | 323 kts | 49° |
| 2026-04-30 12:56 | -1.80616 | 116.23792 | 11912 ft | 314 kts | 49° |
| 2026-04-30 12:57 | -1.79152 | 116.25380 | 11522 ft | 306 kts | 49° |
| 2026-04-30 12:57 | -1.77728 | 116.26926 | 11144 ft | 300 kts | 49° |
| 2026-04-30 12:57 | -1.76323 | 116.28453 | 10776 ft | 297 kts | 49° |
| 2026-04-30 12:57 | -1.74921 | 116.29976 | 10457 ft | 299 kts | 49° |
| 2026-04-30 12:58 | -1.73505 | 116.31515 | 10312 ft | 305 kts | 48° |
| 2026-04-30 12:58 | -1.72087 | 116.33055 | 10159 ft | 295 kts | 48° |
| 2026-04-30 12:58 | -1.70737 | 116.34519 | 10028 ft | 278 kts | 48° |
| 2026-04-30 12:58 | -1.69465 | 116.35898 | 9928 ft | 262 kts | 49° |
| 2026-04-30 12:59 | -1.68253 | 116.37219 | 9720 ft | 253 kts | 49° |
| 2026-04-30 12:59 | -1.67074 | 116.38511 | 9444 ft | 251 kts | 49° |
| 2026-04-30 12:59 | -1.65892 | 116.39809 | 9192 ft | 256 kts | 49° |
| 2026-04-30 12:59 | -1.64677 | 116.41143 | 8942 ft | 270 kts | 49° |
| 2026-04-30 13:00 | -1.63403 | 116.42542 | 8633 ft | 272 kts | 49° |
| 2026-04-30 13:00 | -1.62150 | 116.43917 | 8316 ft | 264 kts | 49° |
| 2026-04-30 13:00 | -1.60933 | 116.45251 | 8030 ft | 255 kts | 49° |
| 2026-04-30 13:00 | -1.59754 | 116.46543 | 7756 ft | 248 kts | 49° |
| 2026-04-30 13:01 | -1.58601 | 116.47808 | 7500 ft | 245 kts | 49° |
| 2026-04-30 13:01 | -1.57446 | 116.49076 | 7259 ft | 249 kts | 49° |
| 2026-04-30 13:01 | -1.56255 | 116.50384 | 7005 ft | 261 kts | 49° |
| 2026-04-30 13:01 | -1.55020 | 116.51739 | 6697 ft | 263 kts | 49° |
| 2026-04-30 13:02 | -1.54606 | 116.52191 | 6600 ft | 260 kts | 49° |
| 2026-04-30 13:02 | -1.53981 | 116.52877 | 6441 ft | 256 kts | 49° |
| 2026-04-30 13:02 | -1.52798 | 116.54173 | 6156 ft | 249 kts | 49° |
| 2026-04-30 13:02 | -1.51887 | 116.55582 | 5916 ft | 238 kts | 69° |
| 2026-04-30 13:03 | -1.51503 | 116.56601 | 5824 ft | 237 kts | 70° |
| 2026-04-30 13:03 | -1.50907 | 116.58199 | 5679 ft | 253 kts | 70° |
| 2026-04-30 13:03 | -1.50281 | 116.59865 | 5459 ft | 258 kts | 70° |
| 2026-04-30 13:03 | -1.49648 | 116.61539 | 5272 ft | 257 kts | 69° |
| 2026-04-30 13:04 | -1.49013 | 116.63210 | 5077 ft | 257 kts | 69° |
| 2026-04-30 13:04 | -1.48378 | 116.64875 | 4887 ft | 256 kts | 69° |
| 2026-04-30 13:04 | -1.47743 | 116.66537 | 4697 ft | 257 kts | 69° |
| 2026-04-30 13:04 | -1.47101 | 116.68212 | 4499 ft | 259 kts | 69° |
| 2026-04-30 13:05 | -1.46457 | 116.69895 | 4308 ft | 258 kts | 69° |
| 2026-04-30 13:05 | -1.45591 | 116.72087 | 4076 ft | 253 kts | 62° |
| 2026-04-30 13:05 | -1.44436 | 116.73390 | 4024 ft | 254 kts | 34° |
| 2026-04-30 13:06 | -1.41677 | 116.73976 | 3994 ft | 237 kts | 352° |
| 2026-04-30 13:06 | -1.40173 | 116.73514 | 4005 ft | 216 kts | 340° |
| 2026-04-30 13:06 | -1.38852 | 116.72961 | 3984 ft | 196 kts | 339° |
| 2026-04-30 13:06 | -1.37620 | 116.72435 | 4008 ft | 191 kts | 339° |
| 2026-04-30 13:07 | -1.36399 | 116.71929 | 3970 ft | 188 kts | 347° |
| 2026-04-30 13:07 | -1.35112 | 116.71994 | 3423 ft | 191 kts | 33° |
| 2026-04-30 13:07 | -1.34255 | 116.72902 | 3244 ft | 176 kts | 56° |
| 2026-04-30 13:07 | -1.33634 | 116.73905 | 3015 ft | 164 kts | 60° |
| 2026-04-30 13:08 | -1.33087 | 116.74900 | 2824 ft | 165 kts | 63° |
| 2026-04-30 13:08 | -1.32590 | 116.75937 | 2616 ft | 166 kts | 65° |
| 2026-04-30 13:08 | -1.32126 | 116.76979 | 2395 ft | 161 kts | 66° |
| 2026-04-30 13:08 | -1.31696 | 116.77974 | 2211 ft | 154 kts | 66° |
| 2026-04-30 13:09 | -1.31283 | 116.78941 | 1994 ft | 149 kts | 66° |
| 2026-04-30 13:09 | -1.30873 | 116.79903 | 1811 ft | 152 kts | 67° |
| 2026-04-30 13:09 | -1.30461 | 116.80875 | 1616 ft | 152 kts | 66° |
| 2026-04-30 13:09 | -1.30052 | 116.81840 | 1416 ft | 149 kts | 67° |
| 2026-04-30 13:10 | -1.29648 | 116.82792 | 1231 ft | 149 kts | 67° |
| 2026-04-30 13:10 | -1.29240 | 116.83755 | 1027 ft | 151 kts | 67° |
| 2026-04-30 13:10 | -1.28835 | 116.84713 | 855 ft | 150 kts | 67° |
| 2026-04-30 13:10 | -1.28423 | 116.85684 | 662 ft | 153 kts | 66° |
| 2026-04-30 13:11 | -1.28005 | 116.86670 | 448 ft | 154 kts | 65° |
| 2026-04-30 13:11 | -1.27589 | 116.87662 | 217 ft | 155 kts | 65° |
| 2026-04-30 13:11 | -1.27171 | 116.88648 | 25 ft | 152 kts | 66° |
| 2026-04-30 13:11 | -1.26799 | 116.89543 | 24 ft | 117 kts | 68° |
| 2026-04-30 13:12 | -1.26568 | 116.90089 | 20 ft | 54 kts | 67° |
| 2026-04-30 13:12 | -1.26506 | 116.90234 | 20 ft | 0 kts | 67° |
| 2026-04-30 13:12 | -1.26499 | 116.90251 | 20 ft | 6 kts | 65° |
| 2026-04-30 13:13 | -1.26432 | 116.90407 | 21 ft | 19 kts | 67° |
| 2026-04-30 13:13 | -1.26318 | 116.90465 | 21 ft | 22 kts | 342° |
| 2026-04-30 13:13 | -1.26232 | 116.90234 | 20 ft | 17 kts | 248° |
| 2026-04-30 13:14 | -1.26277 | 116.90127 | 22 ft | 17 kts | 247° |
| 2026-04-30 13:14 | -1.26321 | 116.90023 | 21 ft | 16 kts | 246° |
| 2026-04-30 13:14 | -1.26339 | 116.89950 | 20 ft | 4 kts | 320° |
| 2026-04-30 13:15 | -1.26299 | 116.89932 | 22 ft | 5 kts | 334° |
| 2026-04-30 13:15 | -1.26286 | 116.89926 | 20 ft | 0 kts | 335° |